createdAt,value
2023-01-05T00:01:47.354Z,99235.80
2023-01-05T00:04:15.601Z,99227.77
2023-01-05T00:06:43.640Z,99226.73
2023-01-05T00:09:14.968Z,99225.66
2023-01-05T00:12:02.470Z,99218.45
2023-01-05T00:14:50.452Z,99213.96
2023-01-05T00:17:40.348Z,99215.27
2023-01-05T00:20:34.229Z,99215.39
2023-01-05T00:23:02.917Z,99207.53
2023-01-05T00:25:33.243Z,99202.39
2023-01-05T00:28:01.295Z,99195.57
2023-01-05T00:30:33.061Z,99194.70
2023-01-05T00:33:02.386Z,99198.71
2023-01-05T00:35:32.294Z,99197.83
2023-01-05T00:38:02.116Z,99192.34
2023-01-05T00:40:30.656Z,99186.35
2023-01-05T00:42:58.652Z,99178.67
2023-01-05T00:45:27.090Z,99182.42
2023-01-05T00:47:56.020Z,99180.73
2023-01-05T00:50:24.129Z,99172.55
2023-01-05T00:52:52.234Z,99168.13
2023-01-05T00:55:20.330Z,99162.63
2023-01-05T00:57:48.235Z,99161.40
2023-01-05T01:00:19.105Z,99162.21
2023-01-05T01:02:47.197Z,99158.91
2023-01-05T01:05:15.389Z,99165.81
2023-01-05T01:07:43.395Z,99166.09
2023-01-05T01:10:12.558Z,99151.23
2023-01-05T01:15:10.659Z,99140.11
2023-01-05T01:17:38.736Z,99139.73
2023-01-05T01:20:09.576Z,99138.66
2023-01-05T01:22:37.710Z,99139.16
2023-01-05T01:25:07.083Z,99136.10
2023-01-05T01:27:35.155Z,99136.59
2023-01-05T01:30:03.504Z,99132.16
2023-01-05T01:32:31.555Z,99139.46
2023-01-05T01:34:59.510Z,99133.13
2023-01-05T01:37:27.565Z,99126.65
2023-01-05T01:39:57.803Z,99117.27
2023-01-05T01:42:27.021Z,99120.35
2023-01-05T01:44:58.479Z,99122.40
2023-01-05T01:47:42.322Z,99113.86
2023-01-05T01:50:15.755Z,99102.95
2023-01-05T01:52:45.714Z,99091.02
2023-01-05T01:55:14.664Z,99086.05
2023-01-05T01:57:44.808Z,99086.55
2023-01-05T02:00:14.437Z,99077.34
2023-01-05T02:02:52.907Z,99078.88
2023-01-05T02:05:27.987Z,99084.48
2023-01-05T02:07:56.138Z,99081.03
2023-01-05T02:10:36.744Z,99075.18
2023-01-05T02:13:23.831Z,99069.00
2023-01-05T02:16:06.893Z,99067.58
2023-01-05T02:18:47.170Z,99061.89
2023-01-05T02:21:25.640Z,99058.41
2023-01-05T02:24:37.607Z,99058.52
2023-01-05T02:27:36.473Z,99055.22
2023-01-05T02:30:48.532Z,99049.73
2023-01-05T02:33:25.499Z,99044.60
2023-01-05T02:36:01.797Z,99042.34
2023-01-05T02:38:37.527Z,99041.63
2023-01-05T02:41:13.367Z,99041.28
2023-01-05T02:43:45.667Z,99043.79
2023-01-05T02:46:14.485Z,99035.36
2023-01-05T02:48:43.944Z,99036.48
2023-01-05T02:51:17.513Z,99034.21
2023-01-05T02:53:52.448Z,99023.29
2023-01-05T02:56:25.935Z,99026.33
2023-01-05T02:58:58.224Z,99023.41
2023-01-05T03:01:30.788Z,99018.08
2023-01-05T03:04:04.595Z,99012.73
2023-01-05T03:06:46.478Z,99014.54
2023-01-05T03:09:18.759Z,99016.91
2023-01-05T03:12:14.137Z,99011.92
2023-01-05T03:14:46.275Z,99015.77
2023-01-05T03:17:20.346Z,99012.46
2023-01-05T03:19:50.788Z,99010.73
2023-01-05T03:22:42.353Z,99002.81
2023-01-05T03:25:31.576Z,98993.91
2023-01-05T03:28:20.323Z,98982.12
2023-01-05T03:31:15.701Z,98986.55
2023-01-05T03:34:11.218Z,98981.60
2023-01-05T03:36:45.732Z,98975.98
2023-01-05T03:39:16.048Z,98978.40
2023-01-05T03:41:45.190Z,98973.83
2023-01-05T03:44:14.515Z,98975.27
2023-01-05T03:46:43.836Z,98975.66
2023-01-05T03:49:11.927Z,98975.36
2023-01-05T03:51:42.094Z,98972.35
2023-01-05T03:54:11.303Z,98967.23
2023-01-05T03:56:40.355Z,98967.42
2023-01-05T03:59:09.031Z,98962.21
2023-01-05T04:01:38.926Z,98960.70
2023-01-05T04:04:07.596Z,98957.65
2023-01-05T04:06:35.684Z,98956.83
2023-01-05T04:09:04.733Z,98954.48
2023-01-05T04:11:34.847Z,98951.27
2023-01-05T04:14:05.675Z,98951.98
2023-01-05T04:16:35.722Z,98954.41
2023-01-05T04:19:11.644Z,98952.37
2023-01-05T04:21:39.823Z,98959.70
2023-01-05T04:24:10.531Z,98959.16
2023-01-05T04:26:41.595Z,98966.37
2023-01-05T04:29:12.038Z,98969.61
2023-01-05T04:31:40.489Z,98968.95
2023-01-05T04:34:08.792Z,98965.60
2023-01-05T04:36:37.502Z,98967.33
2023-01-05T04:39:06.845Z,98964.96
2023-01-05T04:41:36.016Z,98965.19
2023-01-05T04:44:04.476Z,98959.41
2023-01-05T04:46:33.809Z,98959.59
2023-01-05T04:49:02.819Z,98957.07
2023-01-05T04:51:31.063Z,98954.83
2023-01-05T04:53:59.614Z,98957.96
2023-01-05T04:56:28.299Z,98959.23
2023-01-05T04:58:56.293Z,98959.48
2023-01-05T05:01:25.808Z,98954.57
2023-01-05T05:03:55.685Z,98951.85
2023-01-05T05:06:24.857Z,98949.78
2023-01-05T05:08:53.214Z,98951.81
2023-01-05T05:11:21.314Z,98949.23
2023-01-05T05:13:49.954Z,98960.14
2023-01-05T05:16:18.552Z,98955.20
2023-01-05T05:18:47.400Z,98953.67
2023-01-05T05:21:19.405Z,98956.77
2023-01-05T05:23:47.682Z,98962.39
2023-01-05T05:26:15.762Z,98964.80
2023-01-05T05:28:45.696Z,98964.31
2023-01-05T05:31:14.337Z,98968.20
2023-01-05T05:33:43.674Z,98972.10
2023-01-05T05:36:11.820Z,98970.44
2023-01-05T05:38:40.012Z,98972.15
2023-01-05T05:41:08.213Z,98971.15
2023-01-05T05:43:39.826Z,98976.61
2023-01-05T05:46:20.082Z,98978.14
2023-01-05T05:48:48.781Z,98979.33
2023-01-05T05:51:16.950Z,98976.45
2023-01-05T05:53:45.292Z,98977.19
2023-01-05T05:56:14.211Z,98978.20
2023-01-05T05:58:42.519Z,98977.85
2023-01-05T06:01:11.901Z,98981.77
2023-01-05T06:03:41.390Z,98978.49
2023-01-05T06:06:09.918Z,98981.39
2023-01-05T06:08:38.077Z,98982.75
2023-01-05T06:11:07.509Z,98980.88
2023-01-05T06:13:36.146Z,98980.84
2023-01-05T06:19:13.102Z,98987.00
2023-01-05T06:21:41.595Z,98986.67
2023-01-05T06:24:10.392Z,98986.05
2023-01-05T06:26:38.949Z,98988.27
2023-01-05T06:29:10.333Z,98995.77
2023-01-05T06:31:38.593Z,98995.76
2023-01-05T06:34:07.237Z,98995.63
2023-01-05T06:36:35.333Z,98991.44
2023-01-05T06:39:03.639Z,98991.48
2023-01-05T06:41:31.813Z,98993.72
2023-01-05T06:44:00.183Z,98993.75
2023-01-05T06:46:28.376Z,98995.83
2023-01-05T06:48:56.951Z,98998.11
2023-01-05T06:51:25.274Z,98998.67
2023-01-05T06:53:53.417Z,98996.77
2023-01-05T06:56:21.573Z,98999.17
2023-01-05T06:58:49.700Z,99000.85
2023-01-05T07:01:17.858Z,99002.85
2023-01-05T07:03:46.528Z,99003.66
2023-01-05T07:06:15.618Z,99001.77
2023-01-05T07:08:44.070Z,99007.69
2023-01-05T07:11:13.257Z,99009.17
2023-01-05T07:13:41.264Z,99012.05
2023-01-05T07:16:11.227Z,99015.78
2023-01-05T07:18:39.404Z,99016.27
2023-01-05T07:21:08.088Z,99017.09
2023-01-05T07:23:39.648Z,99015.02
2023-01-05T07:26:10.352Z,99018.21
2023-01-05T07:28:38.850Z,99017.33
2023-01-05T07:31:07.745Z,99016.09
2023-01-05T07:33:40.058Z,99018.45
2023-01-05T07:36:09.535Z,99016.90
2023-01-05T07:38:37.601Z,99017.54
2023-01-05T07:41:05.926Z,99014.61
2023-01-05T07:43:35.035Z,99013.23
2023-01-05T07:46:04.849Z,99014.59
2023-01-05T07:48:33.469Z,99015.95
2023-01-05T07:51:02.569Z,99014.59
2023-01-05T07:53:41.374Z,99017.30
2023-01-05T07:56:13.271Z,99017.90
2023-01-05T07:58:42.909Z,99019.70
2023-01-05T08:01:13.534Z,99022.89
2023-01-05T08:03:42.112Z,99022.86
2023-01-05T08:06:12.522Z,99022.66
2023-01-05T08:08:41.655Z,99016.02
2023-01-05T08:11:14.767Z,99020.55
2023-01-05T08:14:01.875Z,99018.98
2023-01-05T08:16:31.309Z,99024.55
2023-01-05T08:19:00.289Z,99025.88
2023-01-05T08:21:29.107Z,99030.60
2023-01-05T08:23:59.200Z,99031.08
2023-01-05T08:26:27.618Z,99031.16
2023-01-05T08:28:55.831Z,99034.41
2023-01-05T08:31:27.217Z,99034.39
2023-01-05T08:34:03.557Z,99038.16
2023-01-05T08:36:32.392Z,99040.79
2023-01-05T08:39:01.131Z,99045.44
2023-01-05T08:41:32.377Z,99044.12
2023-01-05T08:44:03.031Z,99044.20
2023-01-05T08:46:33.603Z,99045.65
2023-01-05T08:49:03.990Z,99045.42
2023-01-05T08:51:34.777Z,99047.01
2023-01-05T08:54:05.828Z,99064.07
2023-01-05T08:56:38.766Z,99061.86
2023-01-05T08:59:11.251Z,99069.17
2023-01-05T09:01:39.823Z,99072.77
2023-01-05T09:04:09.364Z,99081.78
2023-01-05T09:06:37.327Z,99088.27
2023-01-05T09:09:05.449Z,99092.36
2023-01-05T09:11:34.084Z,99098.96
2023-01-05T09:14:02.650Z,99101.84
2023-01-05T09:19:21.235Z,99105.09
2023-01-05T09:21:49.238Z,99106.61
2023-01-05T09:24:17.192Z,99108.31
2023-01-05T09:26:45.313Z,99110.20
2023-01-05T09:29:14.579Z,99106.95
2023-01-05T09:31:46.837Z,99106.27
2023-01-05T09:34:15.780Z,99111.73
2023-01-05T09:36:43.745Z,99117.64
2023-01-05T09:39:17.268Z,99120.27
2023-01-05T09:41:49.794Z,99120.23
2023-01-05T09:44:29.104Z,99118.89
2023-01-05T09:47:00.696Z,99119.06
2023-01-05T09:49:35.414Z,99115.52
2023-01-05T09:52:08.737Z,99118.81
2023-01-05T09:54:38.204Z,99116.23
2023-01-05T09:57:15.946Z,99113.59
2023-01-05T09:59:47.287Z,99116.36
2023-01-05T10:02:33.231Z,99113.11
2023-01-05T10:05:04.668Z,99113.27
2023-01-05T10:07:41.807Z,99115.13
2023-01-05T10:10:30.183Z,99117.56
2023-01-05T10:13:05.789Z,99117.67
2023-01-05T10:15:43.545Z,99120.73
2023-01-05T10:18:14.535Z,99116.66
2023-01-05T10:21:00.479Z,99115.31
2023-01-05T10:23:55.735Z,99114.34
2023-01-05T10:26:45.226Z,99118.49
2023-01-05T10:29:27.311Z,99119.87
2023-01-05T10:32:06.355Z,99113.24
2023-01-05T10:34:49.128Z,99118.12
2023-01-05T10:37:43.643Z,99117.05
2023-01-05T10:40:32.029Z,99117.74
2023-01-05T10:43:20.456Z,99118.63
2023-01-05T10:46:19.880Z,99116.77
2023-01-05T10:48:37.915Z,99113.37
2023-01-05T10:51:07.398Z,99119.34
2023-01-05T10:53:38.505Z,99123.76
2023-01-05T10:56:13.787Z,99120.02
2023-01-05T10:58:43.928Z,99118.14
2023-01-05T11:01:25.139Z,99113.57
2023-01-05T11:04:26.579Z,99114.80
2023-01-05T11:06:45.069Z,99116.04
2023-01-05T11:09:22.356Z,99119.60
2023-01-05T11:11:55.595Z,99120.95
2023-01-05T11:14:24.911Z,99122.14
2023-01-05T11:17:01.266Z,99119.55
2023-01-05T11:19:37.138Z,99113.39
2023-01-05T11:22:26.079Z,99116.67
2023-01-05T11:24:54.875Z,99118.08
2023-01-05T11:27:25.223Z,99120.63
2023-01-05T11:30:27.549Z,99117.14
2023-01-05T11:32:58.344Z,99120.83
2023-01-05T11:35:31.181Z,99123.48
2023-01-05T11:38:00.776Z,99126.69
2023-01-05T11:40:31.431Z,99126.87
2023-01-05T11:43:00.027Z,99124.36
2023-01-05T11:45:36.111Z,99121.38
2023-01-05T11:48:08.178Z,99123.45
2023-01-05T11:50:45.964Z,99128.96
2023-01-05T11:53:25.652Z,99126.80
2023-01-05T11:56:01.515Z,99127.89
2023-01-05T11:58:34.126Z,99130.03
2023-01-05T12:01:39.019Z,99123.28
2023-01-05T12:04:36.457Z,99121.99
2023-01-05T12:07:20.389Z,99119.34
2023-01-05T12:09:59.104Z,99124.36
2023-01-05T12:12:44.318Z,99124.63
2023-01-05T12:15:32.712Z,99133.60
2023-01-05T12:18:12.490Z,99135.19
2023-01-05T12:20:56.634Z,99138.65
2023-01-05T12:23:59.756Z,99133.06
2023-01-05T12:26:31.458Z,99135.48
2023-01-05T12:34:00.352Z,99133.69
2023-01-05T12:35:50.635Z,99131.60
2023-01-05T12:38:36.184Z,99123.02
2023-01-05T12:41:38.629Z,99120.02
2023-01-05T12:44:27.113Z,99117.83
2023-01-05T12:47:11.063Z,99118.40
2023-01-05T12:49:42.638Z,99117.73
2023-01-05T12:52:19.297Z,99115.41
2023-01-05T12:54:53.675Z,99118.48
2023-01-05T12:57:29.426Z,99116.95
2023-01-05T13:00:04.318Z,99124.98
2023-01-05T13:02:35.866Z,99123.52
2023-01-05T13:05:13.601Z,99125.96
2023-01-05T13:07:47.224Z,99124.34
2023-01-05T13:10:23.295Z,99133.11
2023-01-05T13:12:59.367Z,99130.66
2023-01-05T13:15:38.829Z,99134.50
2023-01-05T13:18:14.190Z,99132.05
2023-01-05T13:20:46.709Z,99136.04
2023-01-05T13:23:19.398Z,99139.05
2023-01-05T13:25:53.970Z,99144.61
2023-01-05T13:28:24.571Z,99143.86
2023-01-05T13:31:28.810Z,99148.20
2023-01-05T13:34:21.100Z,99151.54
2023-01-05T13:37:19.592Z,99155.70
2023-01-05T13:40:16.712Z,99158.16
2023-01-05T13:43:13.799Z,99155.95
2023-01-05T13:46:05.045Z,99158.20
2023-01-05T13:49:04.147Z,99157.90
2023-01-05T13:51:47.168Z,99157.79
2023-01-05T13:54:20.062Z,99159.70
2023-01-05T13:56:49.780Z,99166.38
2023-01-05T13:59:40.823Z,99167.42
2023-01-05T14:02:28.510Z,99166.05
2023-01-05T14:04:57.449Z,99166.73
2023-01-05T14:07:26.890Z,99169.31
2023-01-05T14:09:56.874Z,99173.59
2023-01-05T14:12:44.797Z,99176.36
2023-01-05T14:15:35.786Z,99176.45
2023-01-05T14:18:04.627Z,99177.17
2023-01-05T14:20:44.391Z,99178.21
2023-01-05T14:23:55.379Z,99178.40
2023-01-05T14:26:51.711Z,99177.80
2023-01-05T14:30:00.405Z,99178.58
2023-01-05T14:32:30.683Z,99179.14
2023-01-05T14:35:05.352Z,99186.33
2023-01-05T14:37:38.059Z,99184.66
2023-01-05T14:40:30.723Z,99188.94
2023-01-05T14:43:00.554Z,99190.98
2023-01-05T14:45:31.076Z,99194.76
2023-01-05T14:48:02.451Z,99196.83
2023-01-05T14:50:36.861Z,99193.60
2023-01-05T14:53:12.700Z,99196.66
2023-01-05T14:56:02.796Z,99197.52
2023-01-05T14:58:55.135Z,99194.62
2023-01-05T15:01:29.317Z,99196.00
2023-01-05T15:04:03.757Z,99196.21
2023-01-05T15:06:46.580Z,99195.71
2023-01-05T15:09:33.694Z,99195.41
2023-01-05T15:12:34.826Z,99193.55
2023-01-05T15:15:25.836Z,99195.92
2023-01-05T15:21:50.168Z,99197.98
2023-01-05T15:24:52.060Z,99195.05
2023-01-05T15:27:40.869Z,99192.80
2023-01-05T15:30:24.236Z,99193.31
2023-01-05T15:33:04.159Z,99189.23
2023-01-05T15:35:44.629Z,99192.81
2023-01-05T15:38:24.646Z,99192.29
2023-01-05T15:41:00.649Z,99193.30
2023-01-05T15:43:29.044Z,99197.38
2023-01-05T15:45:58.844Z,99203.70
2023-01-05T15:48:33.176Z,99204.39
2023-01-05T15:51:02.712Z,99214.41
2023-01-05T15:53:35.632Z,99215.77
2023-01-05T15:56:05.997Z,99218.84
2023-01-05T15:58:44.111Z,99223.27
2023-01-05T16:01:14.241Z,99227.52
2023-01-05T16:03:43.699Z,99226.67
2023-01-05T16:06:17.423Z,99229.06
2023-01-05T16:08:47.566Z,99233.19
2023-01-05T16:11:21.297Z,99239.52
2023-01-05T16:13:53.232Z,99248.52
2023-01-05T16:16:50.728Z,99247.86
2023-01-05T16:19:27.592Z,99256.21
2023-01-05T16:22:01.164Z,99255.20
2023-01-05T16:24:34.291Z,99253.88
2023-01-05T16:27:03.943Z,99256.81
2023-01-05T16:29:37.473Z,99260.06
2023-01-05T16:32:20.272Z,99266.21
2023-01-05T16:34:48.340Z,99269.63
2023-01-05T16:37:18.391Z,99277.52
2023-01-05T16:39:46.944Z,99282.31
2023-01-05T16:42:40.671Z,99293.94
2023-01-05T16:45:18.028Z,99296.36
2023-01-05T16:47:46.410Z,99311.41
2023-01-05T16:50:46.782Z,99313.86
2023-01-05T16:53:16.054Z,99324.79
2023-01-05T16:55:44.269Z,99320.42
2023-01-05T16:58:37.650Z,99325.42
2023-01-05T17:01:24.574Z,99326.33
2023-01-05T17:03:53.466Z,99333.22
2023-01-05T17:06:26.641Z,99342.79
2023-01-05T17:08:56.829Z,99352.30
2023-01-05T17:11:26.792Z,99362.66
2023-01-05T17:13:55.910Z,99371.33
2023-01-05T17:16:23.996Z,99379.14
2023-01-05T17:18:52.086Z,99385.63
2023-01-05T17:21:22.782Z,99389.85
2023-01-05T17:23:52.576Z,99399.88
2023-01-05T17:26:26.724Z,99409.58
2023-01-05T17:28:58.875Z,99414.02
2023-01-05T17:31:27.494Z,99422.90
2023-01-05T17:33:55.545Z,99427.86
2023-01-05T17:36:28.392Z,99434.84
2023-01-05T17:38:57.955Z,99434.88
2023-01-05T17:41:26.280Z,99442.05
2023-01-05T17:43:54.289Z,99447.86
2023-01-05T17:46:32.090Z,99456.38
2023-01-05T17:49:00.861Z,99458.98
2023-01-05T17:51:29.972Z,99461.71
2023-01-05T17:53:59.378Z,99463.10
2023-01-05T17:56:27.336Z,99467.52
2023-01-05T17:58:55.949Z,99471.10
2023-01-05T18:01:24.520Z,99476.70
2023-01-05T18:03:53.147Z,99479.11
2023-01-05T18:06:32.986Z,99489.14
2023-01-05T18:09:02.059Z,99492.71
2023-01-05T18:11:30.196Z,99494.92
2023-01-05T18:14:00.319Z,99497.64
2023-01-05T18:19:02.024Z,99513.61
2023-01-05T18:21:30.635Z,99516.67
2023-01-05T18:23:58.609Z,99523.29
2023-01-05T18:26:26.686Z,99531.11
2023-01-05T18:28:54.706Z,99533.31
2023-01-05T18:31:23.586Z,99537.56
2023-01-05T18:33:51.834Z,99543.02
2023-01-05T18:36:19.816Z,99554.58
2023-01-05T18:38:50.874Z,99563.23
2023-01-05T18:41:24.488Z,99571.89
2023-01-05T18:43:53.258Z,99573.27
2023-01-05T18:46:22.251Z,99578.38
2023-01-05T18:48:51.782Z,99588.23
2023-01-05T18:51:20.351Z,99592.46
2023-01-05T18:53:48.779Z,99596.03
2023-01-05T18:56:16.800Z,99599.42
2023-01-05T18:58:45.355Z,99599.45
2023-01-05T19:01:18.420Z,99608.82
2023-01-05T19:03:47.140Z,99612.39
2023-01-05T19:06:17.675Z,99621.40
2023-01-05T19:08:48.330Z,99636.70
2023-01-05T19:11:18.389Z,99643.84
2023-01-05T19:13:48.495Z,99642.65
2023-01-05T19:16:19.998Z,99653.02
2023-01-05T19:18:53.729Z,99656.76
2023-01-05T19:21:23.295Z,99652.84
2023-01-05T19:23:56.293Z,99662.88
2023-01-05T19:26:27.920Z,99665.94
2023-01-05T19:28:56.239Z,99674.09
2023-01-05T19:31:24.896Z,99681.58
2023-01-05T19:33:57.251Z,99686.34
2023-01-05T19:36:31.631Z,99692.30
2023-01-05T19:39:01.599Z,99695.54
2023-01-05T19:41:30.618Z,99701.98
2023-01-05T19:43:58.903Z,99706.06
2023-01-05T19:46:30.145Z,99717.59
2023-01-05T19:49:00.378Z,99718.95
2023-01-05T19:51:30.847Z,99727.41
2023-01-05T19:54:00.542Z,99733.01
2023-01-05T19:56:31.421Z,99740.30
2023-01-05T19:59:02.883Z,99745.73
2023-01-05T20:01:33.966Z,99750.14
2023-01-05T20:04:04.188Z,99758.95
2023-01-05T20:06:36.025Z,99767.76
2023-01-05T20:09:08.840Z,99776.05
2023-01-05T20:11:43.136Z,99775.04
2023-01-05T20:14:14.242Z,99784.69
2023-01-05T20:16:44.399Z,99799.10
2023-01-05T20:19:14.893Z,99802.81
2023-01-05T20:21:43.671Z,99803.98
2023-01-05T20:24:14.634Z,99812.47
2023-01-05T20:26:44.622Z,99820.77
2023-01-05T20:29:17.413Z,99823.98
2023-01-05T20:31:48.218Z,99846.52
2023-01-05T20:34:19.819Z,99850.41
2023-01-05T20:36:51.444Z,99853.64
2023-01-05T20:39:22.000Z,99862.11
2023-01-05T20:41:51.917Z,99863.13
2023-01-05T20:44:22.029Z,99873.30
2023-01-05T20:46:53.768Z,99887.35
2023-01-05T20:49:22.888Z,99888.87
2023-01-05T20:51:51.063Z,99901.41
2023-01-05T20:54:19.499Z,99910.21
2023-01-05T20:56:48.740Z,99919.70
2023-01-05T20:59:22.722Z,99928.51
2023-01-05T21:01:51.884Z,99934.25
2023-01-05T21:04:20.929Z,99940.33
2023-01-05T21:06:50.982Z,99951.84
2023-01-05T21:09:19.085Z,99958.77
2023-01-05T21:11:47.649Z,99963.83
2023-01-05T21:14:16.812Z,99973.98
2023-01-05T21:16:47.857Z,99983.13
2023-01-05T21:19:18.085Z,99984.66
2023-01-05T21:21:47.602Z,99989.23
2023-01-05T21:24:16.551Z,100005.66
2023-01-05T21:26:45.063Z,100009.05
2023-01-05T21:29:14.567Z,100015.98
2023-01-05T21:31:43.009Z,100021.05
2023-01-05T21:34:12.392Z,100025.44
2023-01-05T21:36:44.529Z,100033.36
2023-01-05T21:39:17.722Z,100040.77
2023-01-05T21:42:05.160Z,100046.83
2023-01-05T21:44:34.649Z,100051.38
2023-01-05T21:47:06.499Z,100057.28
2023-01-05T21:49:35.509Z,100066.94
2023-01-05T21:52:23.350Z,100072.20
2023-01-05T21:55:10.498Z,100075.23
2023-01-05T21:57:39.137Z,100082.27
2023-01-05T22:00:10.448Z,100094.52
2023-01-05T22:02:39.063Z,100104.23
2023-01-05T22:05:08.947Z,100111.77
2023-01-05T22:07:37.277Z,100116.11
2023-01-05T22:10:07.019Z,100128.60
2023-01-05T22:12:35.072Z,100141.41
2023-01-05T22:15:03.877Z,100147.48
2023-01-05T22:17:33.528Z,100164.90
2023-01-05T22:20:01.572Z,100173.88
2023-01-05T22:22:29.593Z,100175.39
2023-01-05T22:24:57.554Z,100182.29
2023-01-05T22:27:25.494Z,100193.05
2023-01-05T22:29:53.544Z,100194.89
2023-01-05T22:32:21.655Z,100200.59
2023-01-05T22:34:49.669Z,100203.77
2023-01-05T22:37:17.646Z,100204.08
2023-01-05T22:39:45.872Z,100216.73
2023-01-05T22:42:13.893Z,100217.56
2023-01-05T22:44:41.866Z,100225.36
2023-01-05T22:47:09.855Z,100221.66
2023-01-05T22:49:39.391Z,100222.70
2023-01-05T22:52:08.266Z,100234.58
2023-01-05T22:54:38.431Z,100234.38
2023-01-05T22:57:06.642Z,100243.83
2023-01-05T22:59:35.232Z,100254.98
2023-01-05T23:02:03.778Z,100261.40
2023-01-05T23:04:32.607Z,100264.10
2023-01-05T23:07:00.998Z,100270.02
2023-01-05T23:09:29.516Z,100282.36
2023-01-05T23:11:58.056Z,100293.67
2023-01-05T23:14:26.442Z,100301.59
2023-01-05T23:16:54.948Z,100312.40
2023-01-05T23:19:23.247Z,100320.19
2023-01-05T23:21:51.725Z,100326.63
2023-01-05T23:24:20.410Z,100328.29
2023-01-05T23:26:49.562Z,100337.73
2023-01-05T23:29:17.896Z,100342.09
2023-01-05T23:31:46.526Z,100342.25
2023-01-05T23:34:15.066Z,100345.83
2023-01-05T23:36:43.529Z,100354.11
2023-01-05T23:39:18.250Z,100352.90
2023-01-05T23:41:52.222Z,100360.45
2023-01-05T23:44:20.144Z,100367.98
2023-01-05T23:46:48.151Z,100378.08
2023-01-05T23:49:16.066Z,100381.77
2023-01-05T23:51:44.051Z,100384.39
2023-01-05T23:54:11.992Z,100389.90
2023-01-05T23:56:39.907Z,100400.87
2023-01-05T23:59:09.523Z,100405.90
